Terminal Aerodrome Forecast
Issued by NWS

Home | Current Version | Previous Version | Text Only | Print | Product List | Glossary Off
Versions: 1 2 3 4 5 6 7 8 9 10 11 12 13 14 15 16

088
FTUS43 KMPX 260520
TAFAXN
TAF
KAXN 260520Z 2606/2706 21007KT P6SM SCT100
     FM261200 23007KT P6SM BKN090
     FM261800 25009KT P6SM SCT100 BKN250
     FM270000 VRB05KT P6SM SCT050 BKN100 PROB30 2700/2704 -TSRA
      BKN040CB=

USA.gov is the U.S. government's official web portal to all federal, state and local government web resources and services.